sensor_id;sensor_type;location;lat;lon;timestamp;P1;durP1;ratioP1;P2;durP2;ratioP2
13374;SDS011;6756;51.354;15.754;2022-09-21T00:02:19;2.87;;;2.00;;
13374;SDS011;6756;51.354;15.754;2022-09-21T00:06:20;2.60;;;1.80;;
13374;SDS011;6756;51.354;15.754;2022-09-21T00:10:22;4.67;;;2.50;;
13374;SDS011;6756;51.354;15.754;2022-09-21T00:14:23;2.83;;;1.93;;
13374;SDS011;6756;51.354;15.754;2022-09-21T00:18:24;2.50;;;1.80;;
13374;SDS011;6756;51.354;15.754;2022-09-21T00:22:25;4.53;;;2.33;;
13374;SDS011;6756;51.354;15.754;2022-09-21T00:26:27;3.30;;;2.30;;
13374;SDS011;6756;51.354;15.754;2022-09-21T00:30:28;2.73;;;2.07;;
13374;SDS011;6756;51.354;15.754;2022-09-21T00:34:29;2.50;;;2.30;;
13374;SDS011;6756;51.354;15.754;2022-09-21T00:38:31;2.73;;;2.33;;
13374;SDS011;6756;51.354;15.754;2022-09-21T00:42:33;3.00;;;1.90;;
13374;SDS011;6756;51.354;15.754;2022-09-21T00:46:34;4.70;;;2.33;;
13374;SDS011;6756;51.354;15.754;2022-09-21T00:50:39;4.07;;;2.80;;
13374;SDS011;6756;51.354;15.754;2022-09-21T00:54:47;3.37;;;2.43;;
13374;SDS011;6756;51.354;15.754;2022-09-21T00:58:48;3.20;;;2.30;;
13374;SDS011;6756;51.354;15.754;2022-09-21T01:02:51;3.50;;;2.33;;
13374;SDS011;6756;51.354;15.754;2022-09-21T01:06:55;5.10;;;2.50;;
13374;SDS011;6756;51.354;15.754;2022-09-21T01:33:13;2.33;;;2.10;;
13374;SDS011;6756;51.354;15.754;2022-09-21T01:37:23;4.00;;;2.40;;
13374;SDS011;6756;51.354;15.754;2022-09-21T01:41:44;4.50;;;2.30;;
13374;SDS011;6756;51.354;15.754;2022-09-21T01:45:48;5.70;;;2.63;;
13374;SDS011;6756;51.354;15.754;2022-09-21T01:49:52;3.50;;;2.40;;
13374;SDS011;6756;51.354;15.754;2022-09-21T01:53:55;4.40;;;2.50;;
13374;SDS011;6756;51.354;15.754;2022-09-21T01:58:12;6.03;;;2.70;;
13374;SDS011;6756;51.354;15.754;2022-09-21T02:02:30;6.37;;;2.80;;
13374;SDS011;6756;51.354;15.754;2022-09-21T02:06:46;7.03;;;3.03;;
13374;SDS011;6756;51.354;15.754;2022-09-21T02:10:49;8.57;;;2.97;;
13374;SDS011;6756;51.354;15.754;2022-09-21T02:14:52;6.70;;;2.77;;
13374;SDS011;6756;51.354;15.754;2022-09-21T02:39:58;5.57;;;3.03;;
13374;SDS011;6756;51.354;15.754;2022-09-21T02:44:08;4.80;;;2.67;;
13374;SDS011;6756;51.354;15.754;2022-09-21T02:48:19;6.13;;;3.30;;
13374;SDS011;6756;51.354;15.754;2022-09-21T02:52:33;5.50;;;3.30;;
13374;SDS011;6756;51.354;15.754;2022-09-21T02:56:36;8.23;;;3.27;;
13374;SDS011;6756;51.354;15.754;2022-09-21T03:00:40;4.43;;;3.53;;
13374;SDS011;6756;51.354;15.754;2022-09-21T03:04:41;4.37;;;3.60;;
13374;SDS011;6756;51.354;15.754;2022-09-21T03:08:49;5.17;;;3.63;;
13374;SDS011;6756;51.354;15.754;2022-09-21T03:12:49;6.90;;;4.40;;
13374;SDS011;6756;51.354;15.754;2022-09-21T03:16:51;5.33;;;3.53;;
13374;SDS011;6756;51.354;15.754;2022-09-21T03:20:52;4.47;;;3.43;;
13374;SDS011;6756;51.354;15.754;2022-09-21T03:24:53;4.50;;;3.30;;
13374;SDS011;6756;51.354;15.754;2022-09-21T03:28:56;5.40;;;3.67;;
13374;SDS011;6756;51.354;15.754;2022-09-21T03:32:57;7.07;;;4.50;;
13374;SDS011;6756;51.354;15.754;2022-09-21T03:36:58;7.77;;;4.07;;
13374;SDS011;6756;51.354;15.754;2022-09-21T03:40:59;6.00;;;3.70;;
13374;SDS011;6756;51.354;15.754;2022-09-21T03:45:00;4.93;;;3.80;;
13374;SDS011;6756;51.354;15.754;2022-09-21T03:49:01;5.70;;;4.10;;
13374;SDS011;6756;51.354;15.754;2022-09-21T03:53:02;8.13;;;4.17;;
13374;SDS011;6756;51.354;15.754;2022-09-21T03:57:03;7.47;;;4.33;;
13374;SDS011;6756;51.354;15.754;2022-09-21T04:01:04;6.03;;;4.23;;
13374;SDS011;6756;51.354;15.754;2022-09-21T04:05:08;6.87;;;4.20;;
13374;SDS011;6756;51.354;15.754;2022-09-21T04:09:13;5.03;;;4.30;;
13374;SDS011;6756;51.354;15.754;2022-09-21T04:13:14;6.20;;;4.30;;
13374;SDS011;6756;51.354;15.754;2022-09-21T04:17:15;6.33;;;4.80;;
13374;SDS011;6756;51.354;15.754;2022-09-21T04:21:16;6.30;;;4.80;;
13374;SDS011;6756;51.354;15.754;2022-09-21T04:25:18;7.20;;;5.17;;
13374;SDS011;6756;51.354;15.754;2022-09-21T04:29:19;7.70;;;4.10;;
13374;SDS011;6756;51.354;15.754;2022-09-21T04:33:20;8.63;;;4.90;;
13374;SDS011;6756;51.354;15.754;2022-09-21T04:37:24;8.37;;;5.10;;
13374;SDS011;6756;51.354;15.754;2022-09-21T04:41:25;9.53;;;4.97;;
13374;SDS011;6756;51.354;15.754;2022-09-21T04:45:26;6.40;;;4.67;;
13374;SDS011;6756;51.354;15.754;2022-09-21T04:49:26;7.00;;;5.20;;
13374;SDS011;6756;51.354;15.754;2022-09-21T04:53:28;7.93;;;4.80;;
13374;SDS011;6756;51.354;15.754;2022-09-21T04:57:29;8.93;;;5.70;;
13374;SDS011;6756;51.354;15.754;2022-09-21T05:01:30;9.87;;;6.10;;
13374;SDS011;6756;51.354;15.754;2022-09-21T05:05:31;8.30;;;5.80;;
13374;SDS011;6756;51.354;15.754;2022-09-21T05:09:32;6.10;;;5.03;;
13374;SDS011;6756;51.354;15.754;2022-09-21T05:13:51;8.17;;;5.73;;
13374;SDS011;6756;51.354;15.754;2022-09-21T05:17:52;5.93;;;5.17;;
13374;SDS011;6756;51.354;15.754;2022-09-21T05:21:53;6.20;;;5.13;;
13374;SDS011;6756;51.354;15.754;2022-09-21T05:25:53;8.47;;;5.60;;
13374;SDS011;6756;51.354;15.754;2022-09-21T05:29:55;6.57;;;5.20;;
13374;SDS011;6756;51.354;15.754;2022-09-21T05:38:35;9.87;;;6.07;;
13374;SDS011;6756;51.354;15.754;2022-09-21T05:42:36;9.33;;;6.13;;
13374;SDS011;6756;51.354;15.754;2022-09-21T05:46:38;8.03;;;6.00;;
13374;SDS011;6756;51.354;15.754;2022-09-21T05:59:34;9.97;;;6.77;;
13374;SDS011;6756;51.354;15.754;2022-09-21T06:03:57;9.40;;;6.87;;
13374;SDS011;6756;51.354;15.754;2022-09-21T06:07:59;9.40;;;6.13;;
13374;SDS011;6756;51.354;15.754;2022-09-21T06:12:00;8.30;;;6.70;;
13374;SDS011;6756;51.354;15.754;2022-09-21T06:16:01;7.97;;;5.97;;
13374;SDS011;6756;51.354;15.754;2022-09-21T06:20:02;9.70;;;6.87;;
13374;SDS011;6756;51.354;15.754;2022-09-21T06:24:08;9.10;;;7.03;;
13374;SDS011;6756;51.354;15.754;2022-09-21T06:28:10;8.50;;;7.07;;
13374;SDS011;6756;51.354;15.754;2022-09-21T06:32:11;9.97;;;7.37;;
13374;SDS011;6756;51.354;15.754;2022-09-21T06:36:12;14.93;;;8.93;;
13374;SDS011;6756;51.354;15.754;2022-09-21T06:40:14;10.90;;;7.70;;
13374;SDS011;6756;51.354;15.754;2022-09-21T06:44:15;8.63;;;6.93;;
13374;SDS011;6756;51.354;15.754;2022-09-21T06:48:16;8.80;;;7.43;;
13374;SDS011;6756;51.354;15.754;2022-09-21T06:52:16;10.73;;;6.93;;
13374;SDS011;6756;51.354;15.754;2022-09-21T06:56:17;8.57;;;6.80;;
13374;SDS011;6756;51.354;15.754;2022-09-21T07:00:18;7.33;;;6.50;;
13374;SDS011;6756;51.354;15.754;2022-09-21T07:04:19;10.10;;;6.10;;
13374;SDS011;6756;51.354;15.754;2022-09-21T07:08:23;8.67;;;5.67;;
13374;SDS011;6756;51.354;15.754;2022-09-21T07:12:26;8.03;;;5.03;;
13374;SDS011;6756;51.354;15.754;2022-09-21T07:16:27;7.33;;;5.07;;
13374;SDS011;6756;51.354;15.754;2022-09-21T07:20:28;5.37;;;4.87;;
13374;SDS011;6756;51.354;15.754;2022-09-21T07:24:29;5.00;;;4.30;;
13374;SDS011;6756;51.354;15.754;2022-09-21T07:28:30;5.17;;;4.63;;
13374;SDS011;6756;51.354;15.754;2022-09-21T07:32:31;7.03;;;4.73;;
13374;SDS011;6756;51.354;15.754;2022-09-21T07:36:32;5.47;;;4.03;;
13374;SDS011;6756;51.354;15.754;2022-09-21T07:40:33;5.10;;;4.13;;
13374;SDS011;6756;51.354;15.754;2022-09-21T07:44:34;4.83;;;4.07;;
13374;SDS011;6756;51.354;15.754;2022-09-21T07:48:35;5.63;;;4.77;;
13374;SDS011;6756;51.354;15.754;2022-09-21T07:52:36;4.30;;;3.77;;
13374;SDS011;6756;51.354;15.754;2022-09-21T07:56:37;5.00;;;4.27;;
13374;SDS011;6756;51.354;15.754;2022-09-21T08:00:38;4.80;;;3.80;;
13374;SDS011;6756;51.354;15.754;2022-09-21T08:04:39;5.30;;;4.13;;
13374;SDS011;6756;51.354;15.754;2022-09-21T08:08:40;4.33;;;3.70;;
13374;SDS011;6756;51.354;15.754;2022-09-21T08:12:41;6.17;;;3.70;;
13374;SDS011;6756;51.354;15.754;2022-09-21T08:16:43;6.13;;;4.67;;
13374;SDS011;6756;51.354;15.754;2022-09-21T08:20:51;4.63;;;3.83;;
13374;SDS011;6756;51.354;15.754;2022-09-21T08:24:53;5.37;;;3.93;;
13374;SDS011;6756;51.354;15.754;2022-09-21T08:28:54;4.73;;;3.60;;
13374;SDS011;6756;51.354;15.754;2022-09-21T08:32:57;5.90;;;3.10;;
13374;SDS011;6756;51.354;15.754;2022-09-21T08:36:58;5.47;;;3.13;;
13374;SDS011;6756;51.354;15.754;2022-09-21T08:40:59;4.07;;;2.67;;
13374;SDS011;6756;51.354;15.754;2022-09-21T08:45:02;3.23;;;2.37;;
13374;SDS011;6756;51.354;15.754;2022-09-21T08:49:22;4.77;;;2.07;;
13374;SDS011;6756;51.354;15.754;2022-09-21T08:53:37;5.47;;;2.30;;
13374;SDS011;6756;51.354;15.754;2022-09-21T08:57:41;3.70;;;1.93;;
13374;SDS011;6756;51.354;15.754;2022-09-21T09:02:01;2.07;;;1.80;;
13374;SDS011;6756;51.354;15.754;2022-09-21T09:23:33;2.43;;;2.10;;
13374;SDS011;6756;51.354;15.754;2022-09-21T09:27:40;2.57;;;1.87;;
13374;SDS011;6756;51.354;15.754;2022-09-21T09:31:43;2.50;;;2.30;;
13374;SDS011;6756;51.354;15.754;2022-09-21T09:35:51;4.27;;;2.30;;
13374;SDS011;6756;51.354;15.754;2022-09-21T09:39:59;5.03;;;2.13;;
13374;SDS011;6756;51.354;15.754;2022-09-21T09:53:11;4.17;;;2.17;;
13374;SDS011;6756;51.354;15.754;2022-09-21T09:57:17;2.40;;;1.57;;
13374;SDS011;6756;51.354;15.754;2022-09-21T10:01:44;2.57;;;1.73;;
13374;SDS011;6756;51.354;15.754;2022-09-21T10:05:57;4.00;;;1.50;;
13374;SDS011;6756;51.354;15.754;2022-09-21T10:09:57;2.87;;;1.40;;
13374;SDS011;6756;51.354;15.754;2022-09-21T10:14:05;2.73;;;1.90;;
13374;SDS011;6756;51.354;15.754;2022-09-21T10:18:19;3.83;;;1.63;;
13374;SDS011;6756;51.354;15.754;2022-09-21T10:22:25;3.00;;;1.17;;
13374;SDS011;6756;51.354;15.754;2022-09-21T10:26:36;1.50;;;1.20;;
13374;SDS011;6756;51.354;15.754;2022-09-21T10:30:49;2.13;;;1.10;;
13374;SDS011;6756;51.354;15.754;2022-09-21T10:43:33;2.40;;;1.03;;
13374;SDS011;6756;51.354;15.754;2022-09-21T10:47:36;2.10;;;1.07;;
13374;SDS011;6756;51.354;15.754;2022-09-21T10:51:39;3.53;;;1.90;;
13374;SDS011;6756;51.354;15.754;2022-09-21T10:56:06;2.50;;;1.07;;
13374;SDS011;6756;51.354;15.754;2022-09-21T11:04:38;1.10;;;0.90;;
13374;SDS011;6756;51.354;15.754;2022-09-21T11:25:57;1.93;;;0.97;;
13374;SDS011;6756;51.354;15.754;2022-09-21T11:30:12;2.43;;;1.07;;
13374;SDS011;6756;51.354;15.754;2022-09-21T11:47:45;2.33;;;0.97;;
13374;SDS011;6756;51.354;15.754;2022-09-21T12:00:46;2.03;;;1.27;;
13374;SDS011;6756;51.354;15.754;2022-09-21T12:22:15;1.53;;;0.80;;
13374;SDS011;6756;51.354;15.754;2022-09-21T12:26:36;1.10;;;0.90;;
13374;SDS011;6756;51.354;15.754;2022-09-21T12:30:41;1.10;;;0.87;;
13374;SDS011;6756;51.354;15.754;2022-09-21T12:35:03;1.17;;;1.03;;
13374;SDS011;6756;51.354;15.754;2022-09-21T12:39:24;1.27;;;0.70;;
13374;SDS011;6756;51.354;15.754;2022-09-21T12:52:01;2.23;;;0.80;;
13374;SDS011;6756;51.354;15.754;2022-09-21T12:56:09;0.77;;;0.60;;
13374;SDS011;6756;51.354;15.754;2022-09-21T13:00:21;1.30;;;0.83;;
13374;SDS011;6756;51.354;15.754;2022-09-21T13:05:00;1.83;;;1.10;;
13374;SDS011;6756;51.354;15.754;2022-09-21T13:09:11;2.07;;;1.23;;
13374;SDS011;6756;51.354;15.754;2022-09-21T13:13:18;2.37;;;1.40;;
13374;SDS011;6756;51.354;15.754;2022-09-21T13:17:26;1.80;;;1.10;;
13374;SDS011;6756;51.354;15.754;2022-09-21T13:21:30;1.30;;;1.00;;
13374;SDS011;6756;51.354;15.754;2022-09-21T13:25:32;1.13;;;0.93;;
13374;SDS011;6756;51.354;15.754;2022-09-21T13:29:36;2.07;;;1.20;;
13374;SDS011;6756;51.354;15.754;2022-09-21T13:33:39;3.23;;;1.20;;
13374;SDS011;6756;51.354;15.754;2022-09-21T13:37:40;2.03;;;1.60;;
13374;SDS011;6756;51.354;15.754;2022-09-21T13:41:41;2.00;;;1.30;;
13374;SDS011;6756;51.354;15.754;2022-09-21T13:45:47;1.77;;;1.33;;
13374;SDS011;6756;51.354;15.754;2022-09-21T13:49:50;3.37;;;0.80;;
13374;SDS011;6756;51.354;15.754;2022-09-21T13:53:53;0.93;;;0.70;;
13374;SDS011;6756;51.354;15.754;2022-09-21T13:57:57;0.90;;;0.70;;
13374;SDS011;6756;51.354;15.754;2022-09-21T14:02:30;1.07;;;0.40;;
13374;SDS011;6756;51.354;15.754;2022-09-21T14:06:41;1.43;;;0.53;;
13374;SDS011;6756;51.354;15.754;2022-09-21T14:10:49;0.73;;;0.40;;
13374;SDS011;6756;51.354;15.754;2022-09-21T14:27:42;2.03;;;0.40;;
13374;SDS011;6756;51.354;15.754;2022-09-21T14:31:44;0.47;;;0.40;;
13374;SDS011;6756;51.354;15.754;2022-09-21T14:35:48;2.53;;;0.50;;
13374;SDS011;6756;51.354;15.754;2022-09-21T14:39:51;1.13;;;0.40;;
13374;SDS011;6756;51.354;15.754;2022-09-21T14:43:53;0.70;;;0.43;;
13374;SDS011;6756;51.354;15.754;2022-09-21T14:47:59;0.97;;;0.40;;
13374;SDS011;6756;51.354;15.754;2022-09-21T14:56:23;1.57;;;0.60;;
13374;SDS011;6756;51.354;15.754;2022-09-21T15:00:39;0.80;;;0.60;;
13374;SDS011;6756;51.354;15.754;2022-09-21T15:18:13;0.67;;;0.60;;
13374;SDS011;6756;51.354;15.754;2022-09-21T15:22:19;1.30;;;0.70;;
13374;SDS011;6756;51.354;15.754;2022-09-21T15:26:25;2.60;;;0.77;;
13374;SDS011;6756;51.354;15.754;2022-09-21T15:30:29;0.90;;;0.60;;
13374;SDS011;6756;51.354;15.754;2022-09-21T15:34:32;0.90;;;0.50;;
13374;SDS011;6756;51.354;15.754;2022-09-21T15:38:33;0.80;;;0.60;;
13374;SDS011;6756;51.354;15.754;2022-09-21T15:42:37;2.20;;;0.60;;
13374;SDS011;6756;51.354;15.754;2022-09-21T15:46:58;0.90;;;0.67;;
13374;SDS011;6756;51.354;15.754;2022-09-21T15:55:14;2.00;;;1.30;;
13374;SDS011;6756;51.354;15.754;2022-09-21T15:59:20;2.27;;;0.90;;
13374;SDS011;6756;51.354;15.754;2022-09-21T16:03:22;4.90;;;1.27;;
13374;SDS011;6756;51.354;15.754;2022-09-21T16:15:27;2.00;;;1.10;;
13374;SDS011;6756;51.354;15.754;2022-09-21T16:24:07;1.53;;;1.20;;
13374;SDS011;6756;51.354;15.754;2022-09-21T16:40:21;2.07;;;1.40;;
13374;SDS011;6756;51.354;15.754;2022-09-21T16:44:22;2.13;;;1.70;;
13374;SDS011;6756;51.354;15.754;2022-09-21T16:48:24;1.43;;;1.10;;
13374;SDS011;6756;51.354;15.754;2022-09-21T16:52:28;1.97;;;1.70;;
13374;SDS011;6756;51.354;15.754;2022-09-21T16:56:29;1.90;;;1.30;;
13374;SDS011;6756;51.354;15.754;2022-09-21T17:00:33;8.37;;;1.67;;
13374;SDS011;6756;51.354;15.754;2022-09-21T17:04:39;2.43;;;1.60;;
13374;SDS011;6756;51.354;15.754;2022-09-21T17:08:40;2.07;;;1.80;;
13374;SDS011;6756;51.354;15.754;2022-09-21T17:12:41;1.93;;;1.30;;
13374;SDS011;6756;51.354;15.754;2022-09-21T17:16:52;3.10;;;1.50;;
13374;SDS011;6756;51.354;15.754;2022-09-21T17:20:56;3.23;;;1.53;;
13374;SDS011;6756;51.354;15.754;2022-09-21T17:24:57;2.03;;;1.43;;
13374;SDS011;6756;51.354;15.754;2022-09-21T17:28:57;1.70;;;1.20;;
13374;SDS011;6756;51.354;15.754;2022-09-21T17:32:58;2.93;;;1.50;;
13374;SDS011;6756;51.354;15.754;2022-09-21T17:37:00;2.00;;;1.60;;
13374;SDS011;6756;51.354;15.754;2022-09-21T17:41:15;3.83;;;2.37;;
13374;SDS011;6756;51.354;15.754;2022-09-21T17:49:36;2.63;;;1.53;;
13374;SDS011;6756;51.354;15.754;2022-09-21T17:53:40;4.23;;;1.87;;
13374;SDS011;6756;51.354;15.754;2022-09-21T18:02:23;2.17;;;1.30;;
13374;SDS011;6756;51.354;15.754;2022-09-21T18:06:25;2.00;;;1.57;;
13374;SDS011;6756;51.354;15.754;2022-09-21T18:10:26;4.50;;;1.93;;
13374;SDS011;6756;51.354;15.754;2022-09-21T18:18:43;2.60;;;1.77;;
13374;SDS011;6756;51.354;15.754;2022-09-21T18:22:55;2.50;;;1.60;;
13374;SDS011;6756;51.354;15.754;2022-09-21T18:26:58;2.40;;;1.60;;
13374;SDS011;6756;51.354;15.754;2022-09-21T18:39:46;2.17;;;1.47;;
13374;SDS011;6756;51.354;15.754;2022-09-21T18:56:35;3.23;;;1.57;;
13374;SDS011;6756;51.354;15.754;2022-09-21T19:00:38;2.90;;;1.73;;
13374;SDS011;6756;51.354;15.754;2022-09-21T19:04:42;2.17;;;1.40;;
13374;SDS011;6756;51.354;15.754;2022-09-21T19:13:27;3.00;;;1.80;;
13374;SDS011;6756;51.354;15.754;2022-09-21T19:31:11;3.07;;;2.13;;
13374;SDS011;6756;51.354;15.754;2022-09-21T19:39:19;3.07;;;2.50;;
13374;SDS011;6756;51.354;15.754;2022-09-21T19:47:45;2.30;;;1.70;;
13374;SDS011;6756;51.354;15.754;2022-09-21T19:51:53;3.10;;;2.00;;
13374;SDS011;6756;51.354;15.754;2022-09-21T19:55:56;2.37;;;1.80;;
13374;SDS011;6756;51.354;15.754;2022-09-21T20:00:18;2.63;;;1.83;;
13374;SDS011;6756;51.354;15.754;2022-09-21T20:09:09;2.50;;;2.00;;
13374;SDS011;6756;51.354;15.754;2022-09-21T20:17:34;2.47;;;2.03;;
13374;SDS011;6756;51.354;15.754;2022-09-21T20:21:40;2.93;;;2.23;;
13374;SDS011;6756;51.354;15.754;2022-09-21T20:25:47;3.30;;;2.23;;
13374;SDS011;6756;51.354;15.754;2022-09-21T20:30:03;3.67;;;2.80;;
13374;SDS011;6756;51.354;15.754;2022-09-21T20:34:07;6.03;;;3.73;;
13374;SDS011;6756;51.354;15.754;2022-09-21T20:38:10;2.90;;;2.13;;
13374;SDS011;6756;51.354;15.754;2022-09-21T20:42:20;3.53;;;2.50;;
13374;SDS011;6756;51.354;15.754;2022-09-21T20:46:23;3.03;;;2.33;;
13374;SDS011;6756;51.354;15.754;2022-09-21T20:50:24;2.63;;;2.13;;
13374;SDS011;6756;51.354;15.754;2022-09-21T20:54:25;3.37;;;2.43;;
13374;SDS011;6756;51.354;15.754;2022-09-21T20:58:26;3.20;;;2.37;;
13374;SDS011;6756;51.354;15.754;2022-09-21T21:02:28;3.63;;;2.30;;
13374;SDS011;6756;51.354;15.754;2022-09-21T21:06:29;2.53;;;2.00;;
13374;SDS011;6756;51.354;15.754;2022-09-21T21:10:30;2.77;;;2.17;;
13374;SDS011;6756;51.354;15.754;2022-09-21T21:14:31;3.70;;;2.70;;
13374;SDS011;6756;51.354;15.754;2022-09-21T21:18:32;3.60;;;2.87;;
13374;SDS011;6756;51.354;15.754;2022-09-21T21:22:33;3.17;;;2.80;;
13374;SDS011;6756;51.354;15.754;2022-09-21T21:26:34;2.90;;;2.40;;
13374;SDS011;6756;51.354;15.754;2022-09-21T21:30:35;3.07;;;2.43;;
13374;SDS011;6756;51.354;15.754;2022-09-21T21:34:37;4.00;;;2.60;;
13374;SDS011;6756;51.354;15.754;2022-09-21T21:38:38;4.10;;;2.77;;
13374;SDS011;6756;51.354;15.754;2022-09-21T21:42:40;3.97;;;2.70;;
13374;SDS011;6756;51.354;15.754;2022-09-21T21:46:41;4.63;;;2.60;;
13374;SDS011;6756;51.354;15.754;2022-09-21T21:50:42;8.50;;;2.80;;
13374;SDS011;6756;51.354;15.754;2022-09-21T21:54:43;2.93;;;2.20;;
13374;SDS011;6756;51.354;15.754;2022-09-21T21:58:44;3.03;;;1.90;;
13374;SDS011;6756;51.354;15.754;2022-09-21T22:02:45;2.70;;;2.00;;
13374;SDS011;6756;51.354;15.754;2022-09-21T22:06:47;2.70;;;1.90;;
13374;SDS011;6756;51.354;15.754;2022-09-21T22:10:48;2.40;;;1.83;;
13374;SDS011;6756;51.354;15.754;2022-09-21T22:14:49;4.53;;;2.50;;
13374;SDS011;6756;51.354;15.754;2022-09-21T22:18:51;3.77;;;1.90;;
13374;SDS011;6756;51.354;15.754;2022-09-21T22:22:52;3.10;;;2.37;;
13374;SDS011;6756;51.354;15.754;2022-09-21T22:26:52;2.93;;;2.63;;
13374;SDS011;6756;51.354;15.754;2022-09-21T22:30:53;5.40;;;3.30;;
13374;SDS011;6756;51.354;15.754;2022-09-21T22:34:54;3.63;;;2.80;;
13374;SDS011;6756;51.354;15.754;2022-09-21T22:38:55;4.53;;;2.77;;
13374;SDS011;6756;51.354;15.754;2022-09-21T22:42:56;3.40;;;2.70;;
13374;SDS011;6756;51.354;15.754;2022-09-21T22:46:57;4.10;;;3.33;;
13374;SDS011;6756;51.354;15.754;2022-09-21T22:50:58;5.30;;;3.30;;
13374;SDS011;6756;51.354;15.754;2022-09-21T22:54:59;4.60;;;3.20;;
13374;SDS011;6756;51.354;15.754;2022-09-21T22:59:01;5.43;;;3.97;;
13374;SDS011;6756;51.354;15.754;2022-09-21T23:03:03;3.83;;;3.43;;
13374;SDS011;6756;51.354;15.754;2022-09-21T23:07:03;3.67;;;3.20;;
13374;SDS011;6756;51.354;15.754;2022-09-21T23:11:06;5.50;;;3.57;;
13374;SDS011;6756;51.354;15.754;2022-09-21T23:15:14;3.73;;;3.33;;
13374;SDS011;6756;51.354;15.754;2022-09-21T23:19:15;6.77;;;3.33;;
13374;SDS011;6756;51.354;15.754;2022-09-21T23:23:16;3.93;;;2.77;;
13374;SDS011;6756;51.354;15.754;2022-09-21T23:27:17;6.77;;;3.57;;
13374;SDS011;6756;51.354;15.754;2022-09-21T23:31:18;8.03;;;4.00;;
13374;SDS011;6756;51.354;15.754;2022-09-21T23:35:20;3.97;;;3.10;;
13374;SDS011;6756;51.354;15.754;2022-09-21T23:39:20;3.90;;;3.43;;
13374;SDS011;6756;51.354;15.754;2022-09-21T23:43:21;4.53;;;3.90;;
13374;SDS011;6756;51.354;15.754;2022-09-21T23:47:22;4.23;;;3.70;;
13374;SDS011;6756;51.354;15.754;2022-09-21T23:51:23;4.77;;;3.40;;
13374;SDS011;6756;51.354;15.754;2022-09-21T23:55:24;3.43;;;3.13;;
13374;SDS011;6756;51.354;15.754;2022-09-21T23:59:25;3.77;;;2.50;;
